Terminal Aerodrome Forecast
Issued by NWS

Home | Current Version | Previous Version | Text Only | Print | Product List | Glossary On
Versions: 1 2 3 4 5 6 7 8 9 10 11 12 13
000
FTUS44 KLIX 051749
TAFGPT
TAF
KGPT 051749Z 0518/0618 13014KT P6SM SCT045
     FM060000 12007KT P6SM SCT250
     FM061500 15013KT P6SM SCT045 SCT250=

USA.gov is the U.S. government's official web portal to all federal, state and local government web resources and services.